createdAt,value
2022-09-20T00:02:15.055Z,97.70
2022-09-20T00:04:43.083Z,97.65
2022-09-20T00:07:15.644Z,97.66
2022-09-20T00:09:44.176Z,97.59
2022-09-20T00:12:12.381Z,97.54
2022-09-20T00:14:40.612Z,97.50
2022-09-20T00:17:08.601Z,97.50
2022-09-20T00:19:39.230Z,97.54
2022-09-20T00:22:08.987Z,97.53
2022-09-20T00:24:37.198Z,97.57
2022-09-20T00:27:05.665Z,97.58
2022-09-20T00:29:33.728Z,97.54
2022-09-20T00:32:02.141Z,97.57
2022-09-20T00:34:48.788Z,97.56
2022-09-20T00:37:18.472Z,97.69
2022-09-20T00:39:48.784Z,97.67
2022-09-20T00:42:17.278Z,97.70
2022-09-20T00:44:57.080Z,97.71
2022-09-20T00:47:47.328Z,97.76
2022-09-20T00:50:25.869Z,97.73
2022-09-20T00:52:59.681Z,97.73
2022-09-20T00:55:29.710Z,97.68
2022-09-20T00:57:58.651Z,97.63
2022-09-20T01:00:29.401Z,97.66
2022-09-20T01:03:00.556Z,97.69
2022-09-20T01:05:31.387Z,97.69
2022-09-20T01:08:01.824Z,97.73
2022-09-20T01:10:30.509Z,97.70
2022-09-20T01:12:59.601Z,97.74
2022-09-20T01:15:28.907Z,97.80
2022-09-20T01:18:01.351Z,97.83
2022-09-20T01:20:31.965Z,97.88
2022-09-20T01:23:25.567Z,97.80
2022-09-20T01:26:15.311Z,97.88
2022-09-20T01:28:48.132Z,97.91
2022-09-20T01:31:19.077Z,97.85
2022-09-20T01:33:51.091Z,97.87
2022-09-20T01:36:23.383Z,97.95
2022-09-20T01:38:58.220Z,97.98
2022-09-20T01:41:30.347Z,98.09
2022-09-20T01:44:07.322Z,98.11
2022-09-20T01:46:37.992Z,98.15
2022-09-20T01:49:19.558Z,98.21
2022-09-20T01:52:05.294Z,98.20
2022-09-20T01:54:58.002Z,98.19
2022-09-20T01:57:41.455Z,98.15
2022-09-20T02:00:26.432Z,98.10
2022-09-20T02:03:16.546Z,97.99
2022-09-20T02:06:23.353Z,97.95
2022-09-20T02:09:17.742Z,97.99
2022-09-20T02:11:59.078Z,98.05
2022-09-20T02:14:37.290Z,98.06
2022-09-20T02:17:14.616Z,98.08
2022-09-20T02:19:54.277Z,98.16
2022-09-20T02:22:33.579Z,98.17
2022-09-20T02:25:11.714Z,98.20
2022-09-20T02:27:49.206Z,98.22
2022-09-20T02:30:30.610Z,98.22
2022-09-20T02:33:16.018Z,98.24
2022-09-20T02:36:00.303Z,98.27
2022-09-20T02:38:38.539Z,98.33
2022-09-20T02:41:45.983Z,98.32
2022-09-20T02:44:22.485Z,98.28
2022-09-20T02:46:55.179Z,98.33
2022-09-20T02:49:30.132Z,98.32
2022-09-20T02:51:59.607Z,98.30
2022-09-20T02:54:35.649Z,98.30
2022-09-20T02:57:07.500Z,98.30
2022-09-20T02:59:42.227Z,98.32
2022-09-20T03:02:22.648Z,98.30
2022-09-20T03:05:06.223Z,98.34
2022-09-20T03:07:41.564Z,98.35
2022-09-20T03:10:17.492Z,98.30
2022-09-20T03:12:55.427Z,98.25
2022-09-20T03:15:32.927Z,98.28
2022-09-20T03:18:10.854Z,98.30
2022-09-20T03:20:48.227Z,98.30
2022-09-20T03:23:29.864Z,98.29
2022-09-20T03:26:02.038Z,98.31
2022-09-20T03:28:43.593Z,98.28
2022-09-20T03:31:25.718Z,98.27
2022-09-20T03:34:02.231Z,98.26
2022-09-20T03:36:48.055Z,98.21
2022-09-20T03:39:37.786Z,98.24
2022-09-20T03:42:16.981Z,98.20
2022-09-20T03:45:00.910Z,98.22
2022-09-20T03:47:42.917Z,98.23
2022-09-20T03:50:22.374Z,98.20
2022-09-20T03:53:31.260Z,98.17
2022-09-20T03:56:11.739Z,98.12
2022-09-20T03:58:56.444Z,98.16
2022-09-20T04:01:40.749Z,98.15
2022-09-20T04:04:18.453Z,98.15
2022-09-20T04:07:06.392Z,98.10
2022-09-20T04:09:47.676Z,98.11
2022-09-20T04:12:25.381Z,98.09
2022-09-20T04:14:58.535Z,98.12
2022-09-20T04:17:32.532Z,98.16
2022-09-20T04:20:05.753Z,98.17
2022-09-20T04:22:36.866Z,98.18
2022-09-20T04:25:19.548Z,98.16
2022-09-20T04:27:50.421Z,98.13
2022-09-20T04:30:21.486Z,98.11
2022-09-20T04:32:54.517Z,98.10
2022-09-20T04:35:52.133Z,98.09
2022-09-20T04:38:22.600Z,98.08
2022-09-20T04:41:04.152Z,98.04
2022-09-20T04:43:54.355Z,98.00
2022-09-20T04:46:41.393Z,97.99
2022-09-20T04:49:34.173Z,97.94
2022-09-20T04:52:08.844Z,97.87
2022-09-20T04:55:12.502Z,97.78
2022-09-20T04:58:19.627Z,97.72
2022-09-20T05:01:06.223Z,97.72
2022-09-20T05:04:14.364Z,97.64
2022-09-20T05:07:03.213Z,97.58
2022-09-20T05:09:53.889Z,97.63
2022-09-20T05:12:54.776Z,97.62
2022-09-20T05:15:35.742Z,97.60
2022-09-20T05:18:27.714Z,97.61
2022-09-20T05:21:11.486Z,97.67
2022-09-20T05:24:08.372Z,97.68
2022-09-20T05:26:52.215Z,97.61
2022-09-20T05:29:25.779Z,97.68
2022-09-20T05:31:57.681Z,97.70
2022-09-20T05:34:34.772Z,97.72
2022-09-20T05:37:08.026Z,97.68
2022-09-20T05:39:40.176Z,97.85
2022-09-20T05:42:18.357Z,98.02
2022-09-20T05:44:55.994Z,98.16
2022-09-20T05:47:36.394Z,98.02
2022-09-20T05:50:20.486Z,97.97
2022-09-20T05:52:54.916Z,97.85
2022-09-20T05:55:48.248Z,97.90
2022-09-20T05:58:24.794Z,97.93
2022-09-20T06:00:59.162Z,97.79
2022-09-20T06:03:36.061Z,97.78
2022-09-20T06:06:10.857Z,97.76
2022-09-20T06:08:58.265Z,97.52
2022-09-20T06:12:00.515Z,97.35
2022-09-20T06:14:40.094Z,97.31
2022-09-20T06:17:17.667Z,97.21
2022-09-20T06:19:47.599Z,97.18
2022-09-20T06:22:22.955Z,97.06
2022-09-20T06:24:58.180Z,96.56
2022-09-20T06:27:29.626Z,96.20
2022-09-20T06:30:01.023Z,95.95
2022-09-20T06:32:29.479Z,96.08
2022-09-20T06:34:57.884Z,95.73
2022-09-20T06:37:57.580Z,95.61
2022-09-20T06:40:53.224Z,95.13
2022-09-20T06:43:30.593Z,94.76
2022-09-20T06:45:59.076Z,94.34
2022-09-20T06:48:27.291Z,94.01
2022-09-20T06:50:55.558Z,93.88
2022-09-20T06:53:29.479Z,93.74
2022-09-20T06:55:58.052Z,93.53
2022-09-20T06:58:27.514Z,93.54
2022-09-20T07:00:55.658Z,93.35
2022-09-20T07:03:24.602Z,93.57
2022-09-20T07:05:52.712Z,93.78
2022-09-20T07:08:21.081Z,93.98
2022-09-20T07:10:51.966Z,93.82
2022-09-20T07:13:20.903Z,93.40
2022-09-20T07:15:49.211Z,92.82
2022-09-20T07:18:17.424Z,91.46
2022-09-20T07:20:45.424Z,90.02
2022-09-20T07:23:15.764Z,89.67
2022-09-20T07:25:46.655Z,87.14
2022-09-20T07:28:16.406Z,85.60
2022-09-20T07:30:44.717Z,84.71
2022-09-20T07:33:17.436Z,83.77
2022-09-20T07:35:47.155Z,82.01
2022-09-20T07:38:15.876Z,81.12
2022-09-20T07:40:44.805Z,81.84
2022-09-20T07:43:13.540Z,82.44
2022-09-20T07:45:43.112Z,80.85
2022-09-20T07:48:12.007Z,79.81
2022-09-20T07:50:40.137Z,78.10
2022-09-20T07:53:08.582Z,76.25
2022-09-20T07:55:37.104Z,74.66
2022-09-20T07:58:05.233Z,72.71
2022-09-20T08:00:33.383Z,71.64
2022-09-20T08:03:06.047Z,72.41
2022-09-20T08:05:35.864Z,70.94
2022-09-20T08:08:04.257Z,70.93
2022-09-20T08:10:33.034Z,70.23
2022-09-20T08:15:49.266Z,73.62
2022-09-20T08:18:18.936Z,72.79
2022-09-20T08:20:47.043Z,73.43
2022-09-20T08:23:23.339Z,75.59
2022-09-20T08:25:52.083Z,73.82
2022-09-20T08:28:20.252Z,73.41
2022-09-20T08:30:48.437Z,71.90
2022-09-20T08:33:18.129Z,71.02
2022-09-20T08:35:50.027Z,72.68
2022-09-20T08:41:12.524Z,70.50
2022-09-20T08:43:45.590Z,71.82
2022-09-20T08:46:16.590Z,72.56
2022-09-20T08:48:46.632Z,72.90
2022-09-20T08:51:22.588Z,74.46
2022-09-20T08:53:53.891Z,75.18
2022-09-20T08:56:22.826Z,75.17
2022-09-20T08:58:51.252Z,73.88
2022-09-20T09:01:22.869Z,74.17
2022-09-20T09:03:55.224Z,73.92
2022-09-20T09:06:23.417Z,73.90
2022-09-20T09:08:53.912Z,73.99
2022-09-20T09:11:23.541Z,73.87
2022-09-20T09:13:54.745Z,75.04
2022-09-20T09:16:31.858Z,75.01
2022-09-20T09:19:33.297Z,73.28
2022-09-20T09:22:03.139Z,71.44
2022-09-20T09:24:32.109Z,72.19
2022-09-20T09:27:08.208Z,71.58
2022-09-20T09:29:36.779Z,72.63
2022-09-20T09:32:23.771Z,73.34
2022-09-20T09:34:53.574Z,73.96
2022-09-20T09:37:30.659Z,72.12
2022-09-20T09:40:09.305Z,72.42
2022-09-20T09:42:37.460Z,73.35
2022-09-20T09:45:12.876Z,74.19
2022-09-20T09:47:42.382Z,74.26
2022-09-20T09:50:23.649Z,73.88
2022-09-20T09:52:59.373Z,74.87
2022-09-20T09:55:38.131Z,75.63
2022-09-20T09:58:10.319Z,75.67
2022-09-20T10:00:43.103Z,75.86
2022-09-20T10:03:34.403Z,76.53
2022-09-20T10:06:09.715Z,76.21
2022-09-20T10:08:43.648Z,74.77
2022-09-20T10:11:21.609Z,73.92
2022-09-20T10:13:58.718Z,74.94
2022-09-20T10:16:39.805Z,72.97
2022-09-20T10:19:14.381Z,70.73
2022-09-20T10:21:50.875Z,70.16
2022-09-20T10:24:30.874Z,70.64
2022-09-20T10:27:26.564Z,70.23
2022-09-20T10:30:04.254Z,71.36
2022-09-20T10:32:50.286Z,72.23
2022-09-20T10:35:27.655Z,72.94
2022-09-20T10:38:14.703Z,73.19
2022-09-20T10:41:10.472Z,73.32
2022-09-20T10:43:55.375Z,72.23
2022-09-20T10:46:32.832Z,70.96
2022-09-20T10:49:26.725Z,71.85
2022-09-20T10:52:09.226Z,69.81
2022-09-20T10:54:41.837Z,70.16
2022-09-20T10:57:25.711Z,71.27
2022-09-20T10:59:59.480Z,71.82
2022-09-20T11:02:47.232Z,71.36
2022-09-20T11:05:25.402Z,70.95
2022-09-20T11:08:00.615Z,70.04
2022-09-20T11:10:36.325Z,69.17
2022-09-20T11:13:11.900Z,69.22
2022-09-20T11:15:44.011Z,67.81
2022-09-20T11:18:14.082Z,65.20
2022-09-20T11:20:45.785Z,63.69
2022-09-20T11:23:15.604Z,62.07
2022-09-20T11:25:48.192Z,63.88
2022-09-20T11:28:20.917Z,63.35
2022-09-20T11:30:56.317Z,65.71
2022-09-20T11:33:27.039Z,65.78
2022-09-20T11:35:59.750Z,63.41
2022-09-20T11:38:31.260Z,65.28
2022-09-20T11:41:06.420Z,65.42
2022-09-20T11:43:41.563Z,63.41
2022-09-20T11:46:13.467Z,65.30
2022-09-20T11:48:46.662Z,65.22
2022-09-20T11:51:49.919Z,66.84
2022-09-20T11:54:43.507Z,67.77
2022-09-20T11:57:16.766Z,65.32
2022-09-20T11:59:51.417Z,65.27
2022-09-20T12:02:25.050Z,65.82
2022-09-20T12:04:57.026Z,65.39
2022-09-20T12:07:29.813Z,63.82
2022-09-20T12:10:00.983Z,64.90
2022-09-20T12:12:35.414Z,64.81
2022-09-20T12:15:09.504Z,63.74
2022-09-20T12:18:15.662Z,64.08
2022-09-20T12:21:14.995Z,61.47
2022-09-20T12:24:14.069Z,61.25
2022-09-20T12:26:47.197Z,62.52
2022-09-20T12:30:03.817Z,63.34
2022-09-20T12:32:45.159Z,62.93
2022-09-20T12:35:56.343Z,61.75
2022-09-20T12:38:34.140Z,63.81
2022-09-20T12:41:10.251Z,61.65
2022-09-20T12:43:41.458Z,62.20
2022-09-20T12:46:21.021Z,63.08
2022-09-20T12:48:51.773Z,62.21
2022-09-20T12:51:41.202Z,64.05
2022-09-20T12:54:14.588Z,63.37
2022-09-20T12:56:48.569Z,63.31
2022-09-20T12:59:22.839Z,63.80
2022-09-20T13:01:53.534Z,63.67
2022-09-20T13:04:42.469Z,63.09
2022-09-20T13:07:43.954Z,62.79
2022-09-20T13:10:30.629Z,68.45
2022-09-20T13:13:06.188Z,72.78
2022-09-20T13:15:36.267Z,76.13
2022-09-20T13:18:06.307Z,79.56
2022-09-20T13:20:35.918Z,81.81
2022-09-20T13:23:06.468Z,82.97
2022-09-20T13:25:36.543Z,84.60
2022-09-20T13:28:10.546Z,85.91
2022-09-20T13:30:41.949Z,86.65
2022-09-20T13:33:22.753Z,87.57
2022-09-20T13:35:54.571Z,88.69
2022-09-20T13:38:24.481Z,89.52
2022-09-20T13:40:54.187Z,90.27
2022-09-20T13:43:29.028Z,90.93
2022-09-20T13:45:59.057Z,91.30
2022-09-20T13:48:30.903Z,91.60
2022-09-20T13:51:00.135Z,91.65
2022-09-20T13:53:46.837Z,91.77
2022-09-20T13:56:19.868Z,91.88
2022-09-20T13:58:49.515Z,91.95
2022-09-20T14:01:24.835Z,92.01
2022-09-20T14:03:57.411Z,92.15
2022-09-20T14:06:28.410Z,92.36
2022-09-20T14:09:01.347Z,92.50
2022-09-20T14:11:32.150Z,92.56
2022-09-20T14:14:02.266Z,92.64
2022-09-20T14:16:36.858Z,92.64
2022-09-20T14:22:08.111Z,92.64
2022-09-20T14:24:37.243Z,92.67
2022-09-20T14:27:13.311Z,92.74
2022-09-20T14:29:43.230Z,92.67
2022-09-20T14:32:21.765Z,92.70
2022-09-20T14:34:59.957Z,92.79
2022-09-20T14:37:31.467Z,92.79
2022-09-20T14:40:01.286Z,92.88
2022-09-20T14:42:32.528Z,93.05
2022-09-20T14:45:00.796Z,93.09
2022-09-20T14:47:29.844Z,92.99
2022-09-20T14:49:58.981Z,93.08
2022-09-20T14:52:38.522Z,93.16
2022-09-20T14:55:20.633Z,93.09
2022-09-20T14:58:10.501Z,93.19
2022-09-20T15:00:49.915Z,93.22
2022-09-20T15:03:23.707Z,93.35
2022-09-20T15:05:51.897Z,93.44
2022-09-20T15:08:21.242Z,93.40
2022-09-20T15:10:49.339Z,93.36
2022-09-20T15:13:17.561Z,93.35
2022-09-20T15:15:46.738Z,93.34
2022-09-20T15:18:21.530Z,93.40
2022-09-20T15:20:50.000Z,93.46
2022-09-20T15:23:18.294Z,93.53
2022-09-20T15:25:50.638Z,93.68
2022-09-20T15:28:18.632Z,93.93
2022-09-20T15:30:50.980Z,94.18
2022-09-20T15:33:19.927Z,94.35
2022-09-20T15:35:48.831Z,94.48
2022-09-20T15:38:18.040Z,94.50
2022-09-20T15:40:49.118Z,94.63
2022-09-20T15:43:19.483Z,94.72
2022-09-20T15:45:50.423Z,94.83
2022-09-20T15:48:21.322Z,94.89
2022-09-20T15:51:02.829Z,94.84
2022-09-20T15:53:33.501Z,94.81
2022-09-20T15:56:04.743Z,94.72
2022-09-20T15:58:36.192Z,94.52
2022-09-20T16:01:06.430Z,94.37
2022-09-20T16:06:27.844Z,94.08
2022-09-20T16:08:56.486Z,93.99
2022-09-20T16:11:27.947Z,93.89
2022-09-20T16:13:57.526Z,93.79
2022-09-20T16:16:26.492Z,93.54
2022-09-20T16:19:12.958Z,93.50
2022-09-20T16:21:42.544Z,93.38
2022-09-20T16:24:12.533Z,93.24
2022-09-20T16:26:42.151Z,93.26
2022-09-20T16:29:11.673Z,93.06
2022-09-20T16:31:41.476Z,93.01
2022-09-20T16:34:13.710Z,93.05
2022-09-20T16:36:43.355Z,93.09
2022-09-20T16:39:13.619Z,93.21
2022-09-20T16:41:47.145Z,93.11
2022-09-20T16:44:18.689Z,93.28
2022-09-20T16:46:47.569Z,93.47
2022-09-20T16:49:17.005Z,93.54
2022-09-20T16:51:46.334Z,93.38
2022-09-20T16:54:19.597Z,93.40
2022-09-20T16:56:50.067Z,93.59
2022-09-20T16:59:20.791Z,93.77
2022-09-20T17:01:49.204Z,93.68
2022-09-20T17:04:23.729Z,93.45
2022-09-20T17:06:52.166Z,93.59
2022-09-20T17:09:20.933Z,93.59
2022-09-20T17:11:51.403Z,93.39
2022-09-20T17:14:20.754Z,93.53
2022-09-20T17:16:49.215Z,93.44
2022-09-20T17:19:18.863Z,93.46
2022-09-20T17:21:49.361Z,93.33
2022-09-20T17:24:18.044Z,93.34
2022-09-20T17:26:46.680Z,93.45
2022-09-20T17:29:17.719Z,93.60
2022-09-20T17:31:54.063Z,93.52
2022-09-20T17:34:23.819Z,93.48
2022-09-20T17:36:51.803Z,93.80
2022-09-20T17:39:19.726Z,93.86
2022-09-20T17:41:48.918Z,93.87
2022-09-20T17:44:18.551Z,93.90
2022-09-20T17:46:48.363Z,94.04
2022-09-20T17:49:19.323Z,94.28
2022-09-20T17:51:48.818Z,94.24
2022-09-20T17:54:17.131Z,94.25
2022-09-20T17:56:47.209Z,94.30
2022-09-20T17:59:16.485Z,94.47
2022-09-20T18:01:47.524Z,94.61
2022-09-20T18:04:16.079Z,94.82
2022-09-20T18:06:47.022Z,94.93
2022-09-20T18:09:16.525Z,95.12
2022-09-20T18:11:46.392Z,95.20
2022-09-20T18:14:14.440Z,95.25
2022-09-20T18:16:43.175Z,95.30
2022-09-20T18:19:12.603Z,95.30
2022-09-20T18:21:41.266Z,95.33
2022-09-20T18:24:10.184Z,95.37
2022-09-20T18:26:38.933Z,95.36
2022-09-20T18:29:08.002Z,95.33
2022-09-20T18:31:37.931Z,95.31
2022-09-20T18:34:07.335Z,95.25
2022-09-20T18:36:39.616Z,95.20
2022-09-20T18:39:08.160Z,95.25
2022-09-20T18:41:37.397Z,95.19
2022-09-20T18:44:07.562Z,95.35
2022-09-20T18:46:38.138Z,95.21
2022-09-20T18:49:09.336Z,95.10
2022-09-20T18:51:39.963Z,95.11
2022-09-20T18:54:10.002Z,95.06
2022-09-20T18:56:38.959Z,95.18
2022-09-20T18:59:08.918Z,95.25
2022-09-20T19:01:56.389Z,95.32
2022-09-20T19:04:32.862Z,95.29
2022-09-20T19:07:08.516Z,95.27
2022-09-20T19:09:40.400Z,95.12
2022-09-20T19:12:16.945Z,95.30
2022-09-20T19:14:57.387Z,95.06
2022-09-20T19:17:35.667Z,95.07
2022-09-20T19:20:05.699Z,94.97
2022-09-20T19:22:53.829Z,95.17
2022-09-20T19:25:27.097Z,95.32
2022-09-20T19:27:55.409Z,95.43
2022-09-20T19:30:23.984Z,95.40
2022-09-20T19:32:52.465Z,95.34
2022-09-20T19:35:23.520Z,95.53
2022-09-20T19:38:03.817Z,95.58
2022-09-20T19:40:39.734Z,95.61
2022-09-20T19:43:23.724Z,95.59
2022-09-20T19:45:57.180Z,95.59
2022-09-20T19:48:29.947Z,95.62
2022-09-20T19:50:58.323Z,95.68
2022-09-20T19:53:28.755Z,95.71
2022-09-20T19:56:00.745Z,95.72
2022-09-20T19:58:29.032Z,95.62
2022-09-20T20:00:58.432Z,95.60
2022-09-20T20:03:27.516Z,95.68
2022-09-20T20:06:05.715Z,95.76
2022-09-20T20:08:40.519Z,95.70
2022-09-20T20:11:17.128Z,95.81
2022-09-20T20:14:04.509Z,95.91
2022-09-20T20:16:37.462Z,95.74
2022-09-20T20:19:12.398Z,95.73
2022-09-20T20:21:46.800Z,95.89
2022-09-20T20:24:25.828Z,96.12
2022-09-20T20:26:53.939Z,95.98
2022-09-20T20:29:21.859Z,96.15
2022-09-20T20:31:49.788Z,96.02
2022-09-20T20:34:17.780Z,96.02
2022-09-20T20:36:45.719Z,96.21
2022-09-20T20:39:14.105Z,96.24
2022-09-20T20:41:44.078Z,96.41
2022-09-20T20:44:12.448Z,96.53
2022-09-20T20:46:40.428Z,96.61
2022-09-20T20:49:08.472Z,96.53
2022-09-20T20:51:36.393Z,96.36
2022-09-20T20:54:04.691Z,96.32
2022-09-20T20:56:32.992Z,96.18
2022-09-20T20:59:04.956Z,96.19
2022-09-20T21:01:34.156Z,96.14
2022-09-20T21:04:03.304Z,96.14
2022-09-20T21:06:33.079Z,96.28
2022-09-20T21:09:01.739Z,96.29
2022-09-20T21:11:31.779Z,96.24
2022-09-20T21:14:02.121Z,96.29
2022-09-20T21:16:31.813Z,96.23
2022-09-20T21:18:59.931Z,96.00
2022-09-20T21:21:29.914Z,96.07
2022-09-20T21:23:59.351Z,96.22
2022-09-20T21:26:28.480Z,96.25
2022-09-20T21:28:58.996Z,96.13
2022-09-20T21:31:29.456Z,96.15
2022-09-20T21:33:58.094Z,96.07
2022-09-20T21:36:27.017Z,96.06
2022-09-20T21:38:55.280Z,96.06
2022-09-20T21:41:24.411Z,96.11
2022-09-20T21:43:54.866Z,96.20
2022-09-20T21:46:25.803Z,96.43
2022-09-20T21:48:55.806Z,96.50
2022-09-20T21:51:24.711Z,96.43
2022-09-20T21:53:56.481Z,96.40
2022-09-20T21:56:26.240Z,96.36
2022-09-20T21:58:55.028Z,96.30
2022-09-20T22:01:24.263Z,96.33
2022-09-20T22:03:54.873Z,96.48
2022-09-20T22:06:27.018Z,96.65
2022-09-20T22:08:58.390Z,96.67
2022-09-20T22:11:27.992Z,96.49
2022-09-20T22:13:56.894Z,96.47
2022-09-20T22:16:26.804Z,96.64
2022-09-20T22:18:56.206Z,96.49
2022-09-20T22:21:27.239Z,96.37
2022-09-20T22:23:57.279Z,96.27
2022-09-20T22:26:26.964Z,96.41
2022-09-20T22:28:55.013Z,96.48
2022-09-20T22:31:24.261Z,96.44
2022-09-20T22:33:53.582Z,96.28
2022-09-20T22:36:23.556Z,96.17
2022-09-20T22:38:53.870Z,96.17
2022-09-20T22:41:22.045Z,96.40
2022-09-20T22:43:50.557Z,96.41
2022-09-20T22:46:19.872Z,96.55
2022-09-20T22:48:48.746Z,96.42
2022-09-20T22:51:18.437Z,96.34
2022-09-20T22:53:46.954Z,96.71
2022-09-20T22:56:18.004Z,96.69
2022-09-20T22:59:06.665Z,96.56
2022-09-20T23:01:35.891Z,96.53
2022-09-20T23:04:06.091Z,96.48
2022-09-20T23:06:36.081Z,96.47
2022-09-20T23:09:06.219Z,96.54
2022-09-20T23:11:36.752Z,96.64
2022-09-20T23:14:05.994Z,96.67
2022-09-20T23:16:35.477Z,96.79
2022-09-20T23:19:05.037Z,96.78
2022-09-20T23:21:33.950Z,96.79
2022-09-20T23:24:03.990Z,96.82
2022-09-20T23:26:33.434Z,96.84
2022-09-20T23:29:04.580Z,96.78
2022-09-20T23:31:34.559Z,96.63
2022-09-20T23:34:04.156Z,96.68
2022-09-20T23:36:33.783Z,96.66
2022-09-20T23:39:01.926Z,96.80
2022-09-20T23:41:29.965Z,96.82
2022-09-20T23:43:58.175Z,96.79
2022-09-20T23:46:27.983Z,96.77
2022-09-20T23:48:56.007Z,96.63
2022-09-20T23:51:25.768Z,96.78
2022-09-20T23:53:54.996Z,96.99
2022-09-20T23:56:23.936Z,97.18
2022-09-20T23:58:54.160Z,97.23
